Time;durP1;ratioP1;P1;durP2;ratioP2;P2;SDS_P1;SDS_P2;PMS_P1;PMS_P2;Temp;Humidity;BMP_temperature;BMP_pressure;BME280_temperature;BME280_humidity;BME280_pressure;Samples;Min_cycle;Max_cycle;Signal;HPM_P1;HPM_P2
2023/10/15 00:02:27;;;;;;;;;;;;;;;;;;;;;
2023/10/15 00:13:29;;;;;;;0.98;0.17;;;7.70;97.90;;;;;;4875221;29;20028;-86
2023/10/15 00:15:56;;;;;;;1.05;0.10;;;7.70;97.90;;;;;;4866118;29;20053;-87
2023/10/15 00:19:09;;;;;;;0.88;0.20;;;7.70;98.00;;;;;;4898595;29;20052;-86
2023/10/15 00:21:37;;;;;;;;;;;7.70;98.00;;;;;;4906641;29;20047;-87
2023/10/15 00:24:25;;;;;;;0.47;0.10;;;7.70;98.10;;;;;;4913198;29;20368;-89
2023/10/15 00:27:56;;;;;;;0.90;0.25;;;7.70;98.10;;;;;;4874943;29;20060;-88
2023/10/15 00:30:21;;;;;;;0.47;0.10;;;7.80;98.10;;;;;;4868993;29;20068;-87
2023/10/15 00:32:49;;;;;;;0.30;0.00;;;7.80;98.10;;;;;;4906747;29;20131;-88
2023/10/15 00:35:55;;;;;;;1.25;0.10;;;7.80;98.10;;;;;;4919387;29;20408;-87
2023/10/15 00:38:30;;;;;;;1.23;0.10;;;7.80;98.10;;;;;;4902682;29;20055;-91
2023/10/15 00:41:33;;;;;;;0.10;0.10;;;7.80;98.20;;;;;;4904326;29;20052;-94
2023/10/15 00:44:35;;;;;;;0.98;0.10;;;7.70;98.20;;;;;;4905966;29;20032;-91
2023/10/15 00:47:21;;;;;;;2.25;0.30;;;7.80;98.20;;;;;;4913635;29;20195;-90
2023/10/15 00:49:50;;;;;;;0.93;0.15;;;7.80;98.30;;;;;;4917765;29;20103;-89
2023/10/15 00:52:20;;;;;;;4.45;0.30;;;7.70;98.30;;;;;;4902008;29;20100;-90
2023/10/15 00:54:51;;;;;;;1.65;0.20;;;7.70;98.40;;;;;;4903428;29;20052;-88
2023/10/15 00:57:46;;;;;;;2.53;0.30;;;7.60;98.40;;;;;;4909552;29;20048;-90
2023/10/15 01:03:31;;;;;;;1.27;0.25;;;7.60;98.60;;;;;;4903463;29;20055;-88
2023/10/15 01:06:05;;;;;;;1.80;0.35;;;7.60;98.50;;;;;;4902885;29;20052;-88
2023/10/15 01:08:35;;;;;;;1.85;0.20;;;7.60;98.50;;;;;;4896347;29;20052;-88
2023/10/15 01:11:51;;;;;;;0.17;0.00;;;7.70;98.50;;;;;;4931068;29;20048;-86
2023/10/15 01:15:06;;;;;;;1.83;0.20;;;7.70;98.50;;;;;;4910915;29;20044;-86
2023/10/15 01:18:23;;;;;;;0.95;0.28;;;7.70;98.50;;;;;;4917427;29;20500;-87
2023/10/15 01:25:24;;;;;;;0.60;0.10;;;7.50;98.70;;;;;;4927032;29;20044;-88
2023/10/15 01:28:03;;;;;;;0.93;0.10;;;7.50;98.70;;;;;;4886567;29;20112;-90
2023/10/15 01:31:04;;;;;;;0.63;0.10;;;7.50;98.70;;;;;;4918458;29;20091;-87
2023/10/15 01:33:57;;;;;;;2.65;0.13;;;7.50;98.80;;;;;;4892688;29;20076;-87
2023/10/15 01:36:28;;;;;;;0.28;0.00;;;7.50;98.80;;;;;;4894290;29;20060;-90
2023/10/15 01:39:13;;;;;;;0.30;0.10;;;7.50;98.90;;;;;;4886183;29;20060;-89
2023/10/15 01:47:06;;;;;;;1.15;0.10;;;7.50;98.80;;;;;;4859955;29;20516;-88
2023/10/15 01:58:14;;;;;;;1.65;0.40;;;7.50;98.90;;;;;;4883804;29;20036;-89
2023/10/15 02:01:21;;;;;;;1.63;0.20;;;7.50;98.90;;;;;;4827917;29;20542;-88
2023/10/15 02:04:26;;;;;;;1.90;0.30;;;7.50;99.00;;;;;;4829517;29;20471;-89
2023/10/15 02:07:30;;;;;;;2.20;0.43;;;7.50;98.90;;;;;;4844535;29;20038;-88
2023/10/15 02:10:56;;;;;;;;;;;;;;;;;;;;;
2023/10/15 02:17:46;;;;;;;0.85;0.13;;;7.60;99.00;;;;;;4798940;29;20474;-87
2023/10/15 02:20:47;;;;;;;1.05;0.30;;;7.60;99.00;;;;;;4818275;29;20059;-87
2023/10/15 02:23:20;;;;;;;0.50;0.10;;;7.60;99.00;;;;;;4828527;29;20560;-87
2023/10/15 02:26:05;;;;;;;0.30;0.15;;;7.60;99.00;;;;;;4829076;29;20187;-87
2023/10/15 02:28:35;;;;;;;0.10;0.10;;;7.70;99.00;;;;;;4829537;29;20077;-89
2023/10/15 02:31:30;;;;;;;0.30;0.10;;;7.70;99.00;;;;;;4840591;29;20054;-87
2023/10/15 02:34:04;;;;;;;0.43;0.25;;;7.70;99.00;;;;;;4838018;29;20133;-87
2023/10/15 02:37:03;;;;;;;0.50;0.10;;;7.70;99.00;;;;;;4834556;29;20132;-87
2023/10/15 02:40:16;;;;;;;0.00;0.00;;;7.70;99.00;;;;;;4903054;29;20049;-88
2023/10/15 02:43:26;;;;;;;0.50;0.10;;;7.80;99.00;;;;;;4896795;29;20052;-87
2023/10/15 02:46:59;;;;;;;;;;;;;;;;;;;;;
2023/10/15 02:50:03;;;;;;;0.50;0.10;;;7.80;98.90;;;;;;4869277;29;20086;-87
2023/10/15 02:53:11;;;;;;;0.43;0.00;;;7.80;99.00;;;;;;4895404;29;20060;-88
2023/10/15 02:56:59;;;;;;;0.47;0.10;;;7.80;99.00;;;;;;4900795;29;20040;-87
2023/10/15 03:03:23;;;;;;;0.25;0.00;;;7.80;99.00;;;;;;4913615;29;20055;-87
2023/10/15 03:06:19;;;;;;;;;;;;;;;;;;;;;
2023/10/15 03:09:11;;;;;;;0.03;0.00;;;7.70;99.00;;;;;;4900363;29;20056;-88
2023/10/15 03:16:59;;;;;;;0.20;0.10;;;7.70;99.10;;;;;;4878412;29;20641;-87
2023/10/15 03:23:26;;;;;;;0.05;0.00;;;7.60;99.10;;;;;;4878240;29;20036;-87
2023/10/15 03:26:08;;;;;;;0.20;0.00;;;7.60;99.10;;;;;;4860813;29;20080;-88
2023/10/15 03:28:51;;;;;;;0.10;0.10;;;7.60;99.20;;;;;;4879999;29;20139;-87
2023/10/15 03:32:09;;;;;;;0.10;0.10;;;7.60;99.20;;;;;;4896999;29;20107;-87
2023/10/15 03:34:59;;;;;;;;;;;;;;;;;;;;;
2023/10/15 03:38:09;;;;;;;0.15;0.00;;;7.60;99.20;;;;;;4885086;29;20055;-88
2023/10/15 03:42:17;;;;;;;0.70;0.10;;;7.50;99.30;;;;;;4883581;29;20498;-88
2023/10/15 03:45:53;;;;;;;0.22;0.00;;;7.50;99.20;;;;;;4880509;29;20176;-89
2023/10/15 03:49:27;;;;;;;0.08;0.00;;;7.50;99.20;;;;;;4873481;29;20057;-88
2023/10/15 03:52:47;;;;;;;1.33;0.10;;;7.50;99.20;;;;;;4846653;29;20058;-88
2023/10/15 03:55:17;;;;;;;1.08;0.10;;;7.50;99.30;;;;;;4859109;29;20049;-88
2023/10/15 03:57:51;;;;;;;0.40;0.10;;;7.40;99.30;;;;;;4860809;29;20092;-88
2023/10/15 04:00:37;;;;;;;1.38;0.20;;;7.50;99.30;;;;;;4895547;29;20049;-87
2023/10/15 04:03:53;;;;;;;0.75;0.15;;;7.50;99.30;;;;;;4885086;29;20055;-88
2023/10/15 04:06:39;;;;;;;0.10;0.10;;;7.60;99.30;;;;;;4900674;29;20067;-88
2023/10/15 04:10:08;;;;;;;1.38;0.20;;;7.60;99.30;;;;;;4883427;29;20149;-88
2023/10/15 04:12:41;;;;;;;2.40;0.30;;;7.60;99.20;;;;;;4867911;29;20041;-90
2023/10/15 04:15:13;;;;;;;2.42;0.60;;;7.60;99.20;;;;;;4893904;29;20048;-89
2023/10/15 04:21:20;;;;;;;0.80;0.20;;;7.40;99.20;;;;;;4887857;29;20051;-89
2023/10/15 04:23:56;;;;;;;0.35;0.10;;;7.30;99.30;;;;;;4881658;29;20049;-87
2023/10/15 04:26:28;;;;;;;0.93;0.27;;;7.30;99.40;;;;;;4881460;29;20132;-87
2023/10/15 04:29:06;;;;;;;0.75;0.10;;;7.20;99.30;;;;;;4867099;29;20053;-86
2023/10/15 04:32:09;;;;;;;0.57;0.10;;;7.30;99.40;;;;;;4903001;29;20052;-86
2023/10/15 04:34:41;;;;;;;0.45;0.05;;;7.30;99.40;;;;;;4893304;29;20417;-85
2023/10/15 04:37:16;;;;;;;1.15;0.08;;;7.30;99.30;;;;;;4889795;29;20482;-85
2023/10/15 04:39:55;;;;;;;;;;;7.20;99.40;;;;;;4907865;29;20162;-85
2023/10/15 04:42:43;;;;;;;1.08;0.10;;;7.20;99.40;;;;;;4900584;29;19926;-85
2023/10/15 04:45:21;;;;;;;0.15;0.05;;;7.10;99.40;;;;;;4903713;29;20496;-85
2023/10/15 04:48:36;;;;;;;3.13;0.90;;;7.10;99.40;;;;;;4905671;29;20048;-85
2023/10/15 04:50:43;;;;;;;0.95;0.00;;;7.10;99.50;;;;;;4905258;29;20500;-85
2023/10/15 04:56:05;;;;;;;0.70;0.32;;;7.00;99.50;;;;;;4938477;29;20468;-85
2023/10/15 04:58:32;;;;;;;0.22;0.10;;;7.00;99.50;;;;;;4916440;29;20053;-86
2023/10/15 05:01:00;;;;;;;0.38;0.00;;;7.00;99.50;;;;;;4915931;29;20485;-85
2023/10/15 05:03:28;;;;;;;0.32;0.10;;;7.00;99.50;;;;;;4918374;29;20562;-85
2023/10/15 05:06:03;;;;;;;0.20;0.10;;;7.00;99.50;;;;;;4933609;29;20479;-85
2023/10/15 05:08:32;;;;;;;0.73;0.10;;;7.00;99.50;;;;;;4918783;29;20052;-85
2023/10/15 05:10:59;;;;;;;0.40;0.10;;;6.90;99.50;;;;;;4903958;29;20032;-85
2023/10/15 05:13:31;;;;;;;1.65;0.30;;;6.90;99.60;;;;;;4902181;29;20044;-85
2023/10/15 05:16:02;;;;;;;0.63;0.20;;;6.80;99.60;;;;;;4891824;29;20473;-85
2023/10/15 05:18:32;;;;;;;0.40;0.10;;;6.80;99.70;;;;;;4936659;29;20044;-85
2023/10/15 05:21:03;;;;;;;1.20;0.10;;;6.70;99.70;;;;;;4919523;29;20048;-85
2023/10/15 05:23:30;;;;;;;1.73;0.10;;;6.70;99.70;;;;;;4922640;29;20523;-90
2023/10/15 05:25:57;;;;;;;0.95;0.20;;;6.70;99.80;;;;;;4921586;29;20052;-89
2023/10/15 05:28:26;;;;;;;0.25;0.10;;;6.70;99.80;;;;;;4919903;29;20073;-89
2023/10/15 05:30:54;;;;;;;0.60;0.10;;;6.70;99.80;;;;;;4917293;29;20044;-90
2023/10/15 05:33:22;;;;;;;0.10;0.00;;;6.70;99.80;;;;;;4911510;29;20051;-90
2023/10/15 05:35:49;;;;;;;0.20;0.10;;;6.60;99.80;;;;;;4907935;29;20094;-88
2023/10/15 05:38:17;;;;;;;0.35;0.15;;;6.60;99.80;;;;;;4905699;29;20052;-89
2023/10/15 05:40:44;;;;;;;0.30;0.10;;;6.60;99.80;;;;;;4924761;29;20541;-89
2023/10/15 05:43:12;;;;;;;0.32;0.00;;;6.60;99.80;;;;;;4920556;29;20107;-89
2023/10/15 05:45:44;;;;;;;0.28;0.10;;;6.60;99.80;;;;;;4904571;29;20075;-89
2023/10/15 05:48:12;;;;;;;1.27;0.30;;;6.50;99.80;;;;;;4907765;29;20050;-89
2023/10/15 05:50:39;;;;;;;0.45;0.00;;;6.50;99.90;;;;;;4907565;29;20044;-89
2023/10/15 05:53:07;;;;;;;0.10;0.00;;;6.50;99.90;;;;;;4919082;29;20048;-89
2023/10/15 05:55:40;;;;;;;0.10;0.00;;;6.50;99.90;;;;;;4928382;29;20043;-89
2023/10/15 05:58:08;;;;;;;0.57;0.10;;;6.50;99.90;;;;;;4928254;29;20052;-89
2023/10/15 06:00:41;;;;;;;0.65;0.10;;;6.50;99.90;;;;;;4921686;29;20083;-89
2023/10/15 06:03:11;;;;;;;0.20;0.10;;;6.40;99.90;;;;;;4927137;29;20051;-89
2023/10/15 06:05:41;;;;;;;1.30;0.03;;;6.50;99.90;;;;;;4936774;29;20048;-89
2023/10/15 06:08:09;;;;;;;1.42;0.15;;;6.50;99.90;;;;;;4900645;29;20047;-89
2023/10/15 06:10:37;;;;;;;0.80;0.10;;;6.50;99.90;;;;;;4952637;29;20099;-90
2023/10/15 06:13:07;;;;;;;0.85;0.10;;;6.50;99.90;;;;;;4908562;29;20488;-89
2023/10/15 06:15:39;;;;;;;0.57;0.20;;;6.50;99.90;;;;;;4922341;29;20061;-89
2023/10/15 06:18:06;;;;;;;1.33;0.20;;;6.60;99.90;;;;;;4914744;29;20040;-89
2023/10/15 06:20:34;;;;;;;0.40;0.10;;;6.50;99.90;;;;;;4910918;29;20058;-89
2023/10/15 06:23:07;;;;;;;0.40;0.10;;;6.50;99.90;;;;;;4925120;29;20043;-89
2023/10/15 06:25:38;;;;;;;1.55;0.17;;;6.50;99.90;;;;;;4898922;29;20048;-89
2023/10/15 06:28:14;;;;;;;0.60;0.20;;;6.50;99.90;;;;;;4907174;29;20055;-89
2023/10/15 06:30:43;;;;;;;0.22;0.10;;;6.50;99.90;;;;;;4924297;29;20047;-88
2023/10/15 06:33:16;;;;;;;0.45;0.10;;;6.50;99.90;;;;;;4944000;29;20048;-88
2023/10/15 06:35:43;;;;;;;1.65;0.10;;;6.50;99.90;;;;;;4921463;29;20144;-88
2023/10/15 06:38:10;;;;;;;0.93;0.20;;;6.50;99.90;;;;;;4909341;29;20523;-89
2023/10/15 06:40:44;;;;;;;0.32;0.20;;;6.60;99.90;;;;;;4892285;29;20052;-89
2023/10/15 06:43:22;;;;;;;0.40;0.10;;;6.60;99.90;;;;;;4925282;29;20051;-89
2023/10/15 06:45:51;;;;;;;0.60;0.10;;;6.60;99.90;;;;;;4914127;29;20055;-89
2023/10/15 06:48:22;;;;;;;0.90;0.20;;;6.70;99.90;;;;;;4895216;29;20073;-89
2023/10/15 06:50:49;;;;;;;0.68;0.10;;;6.80;99.90;;;;;;4929987;29;20084;-89
2023/10/15 06:53:16;;;;;;;1.13;0.30;;;6.80;99.90;;;;;;4892207;29;20130;-88
2023/10/15 06:55:45;;;;;;;1.80;0.20;;;6.90;99.90;;;;;;4894506;29;20085;-89
2023/10/15 06:58:13;;;;;;;1.65;0.30;;;6.90;99.90;;;;;;4901448;29;20056;-88
2023/10/15 07:00:40;;;;;;;1.27;0.40;;;7.00;99.80;;;;;;4899912;29;20104;-89
2023/10/15 07:03:08;;;;;;;1.38;0.30;;;7.10;99.80;;;;;;4885076;29;20116;-89
2023/10/15 07:05:38;;;;;;;0.80;0.22;;;7.20;99.80;;;;;;4904730;29;20059;-89
2023/10/15 07:08:31;;;;;;;2.70;0.35;;;7.30;99.70;;;;;;4907139;29;20627;-88
2023/10/15 07:10:59;;;;;;;1.65;0.25;;;7.30;99.60;;;;;;4937231;29;20062;-88
2023/10/15 07:13:40;;;;;;;1.38;0.47;;;7.30;99.50;;;;;;4914989;29;20051;-89
2023/10/15 07:16:10;;;;;;;0.75;0.35;;;7.30;99.50;;;;;;4908406;29;20048;-88
2023/10/15 07:18:39;;;;;;;0.90;0.20;;;7.30;99.60;;;;;;4909824;29;20049;-89
2023/10/15 07:21:10;;;;;;;0.90;0.25;;;7.30;99.50;;;;;;4884268;29;20111;-89
2023/10/15 07:23:41;;;;;;;3.15;0.40;;;7.40;99.50;;;;;;4900260;29;20052;-89
2023/10/15 07:26:08;;;;;;;2.35;0.30;;;7.50;99.50;;;;;;4895169;29;20052;-89
2023/10/15 07:29:04;;;;;;;0.85;0.20;;;7.60;99.50;;;;;;4900026;29;20063;-89
2023/10/15 07:31:49;;;;;;;1.10;0.47;;;7.70;99.40;;;;;;4904055;29;20040;-88
2023/10/15 07:34:20;;;;;;;0.70;0.40;;;7.80;99.30;;;;;;4890468;29;20062;-88
2023/10/15 07:36:50;;;;;;;0.57;0.20;;;7.80;99.30;;;;;;4903017;29;20076;-89
2023/10/15 07:39:28;;;;;;;0.77;0.20;;;7.70;99.20;;;;;;4894903;29;20048;-89
2023/10/15 07:41:55;;;;;;;1.65;0.20;;;7.70;99.20;;;;;;4915121;29;20096;-88
2023/10/15 07:44:28;;;;;;;1.48;0.57;;;7.70;99.30;;;;;;4912269;29;20052;-89
2023/10/15 07:46:59;;;;;;;0.50;0.20;;;7.80;99.30;;;;;;4899187;29;20060;-88
2023/10/15 07:49:31;;;;;;;1.45;0.20;;;7.70;99.30;;;;;;4912610;29;20152;-88
2023/10/15 07:51:59;;;;;;;2.17;0.32;;;7.80;99.30;;;;;;4905736;29;20053;-88
2023/10/15 07:54:26;;;;;;;1.52;0.20;;;7.70;99.20;;;;;;4917365;29;20092;-88
2023/10/15 07:57:00;;;;;;;1.60;0.20;;;7.70;99.30;;;;;;4902005;29;20055;-88
2023/10/15 07:59:27;;;;;;;1.25;0.20;;;7.70;99.30;;;;;;4902590;29;20048;-88
2023/10/15 08:01:56;;;;;;;1.98;0.20;;;7.70;99.30;;;;;;4915003;29;20047;-88
2023/10/15 08:04:31;;;;;;;2.67;0.22;;;7.70;99.60;;;;;;4914305;29;20111;-89
2023/10/15 08:07:00;;;;;;;1.88;0.38;;;7.70;99.30;;;;;;4898854;29;20056;-88
2023/10/15 08:09:33;;;;;;;1.77;0.30;;;7.70;99.30;;;;;;4913940;29;20048;-89
2023/10/15 08:12:00;;;;;;;1.48;0.28;;;7.70;99.30;;;;;;4896081;29;20045;-89
2023/10/15 08:14:27;;;;;;;1.80;0.25;;;7.70;99.30;;;;;;4907992;29;20066;-89
2023/10/15 08:16:55;;;;;;;2.88;0.75;;;7.80;99.30;;;;;;4901232;29;20059;-89
2023/10/15 08:19:27;;;;;;;2.47;0.20;;;7.90;99.30;;;;;;4894284;29;20489;-87
2023/10/15 08:21:54;;;;;;;0.70;0.10;;;7.90;99.20;;;;;;4882663;29;20083;-89
2023/10/15 08:24:21;;;;;;;1.83;0.30;;;7.90;99.10;;;;;;4901738;29;20681;-89
2023/10/15 08:26:49;;;;;;;2.83;0.35;;;8.00;99.10;;;;;;4883376;29;20052;-89
2023/10/15 08:29:54;;;;;;;0.98;0.20;;;7.90;99.10;;;;;;4905031;29;20631;-89
2023/10/15 08:32:22;;;;;;;;;;;7.90;99.20;;;;;;4904162;29;20051;-89
2023/10/15 08:34:50;;;;;;;1.30;0.30;;;8.00;99.20;;;;;;4893349;29;19924;-89
2023/10/15 08:37:35;;;;;;;2.08;0.90;;;8.00;99.10;;;;;;4902100;29;20138;-89
2023/10/15 08:40:04;;;;;;;0.38;0.10;;;8.00;99.00;;;;;;4898462;29;20052;-89
2023/10/15 08:43:21;;;;;;;1.67;0.20;;;7.90;99.10;;;;;;4917625;29;20044;-88
2023/10/15 08:45:59;;;;;;;2.30;0.43;;;7.80;99.20;;;;;;4875834;29;20053;-88
2023/10/15 08:48:28;;;;;;;3.03;0.30;;;7.80;99.30;;;;;;4836512;29;20128;-87
2023/10/15 08:50:57;;;;;;;0.80;0.30;;;7.80;99.30;;;;;;4900499;29;20048;-88
2023/10/15 08:53:26;;;;;;;2.28;0.20;;;7.80;99.30;;;;;;4916042;29;20048;-90
2023/10/15 08:55:57;;;;;;;0.28;0.10;;;7.90;99.30;;;;;;4908775;29;20044;-88
2023/10/15 08:58:25;;;;;;;1.75;0.20;;;8.00;99.20;;;;;;4889037;29;20044;-89
2023/10/15 09:00:57;;;;;;;0.45;0.10;;;8.00;99.10;;;;;;4891948;29;20140;-89
2023/10/15 09:03:26;;;;;;;0.40;0.10;;;8.00;99.10;;;;;;4892210;29;20075;-89
2023/10/15 09:05:56;;;;;;;0.43;0.10;;;7.90;99.10;;;;;;4899837;29;20548;-88
2023/10/15 09:08:28;;;;;;;0.65;0.10;;;7.90;99.10;;;;;;4898328;29;20052;-89
2023/10/15 09:11:04;;;;;;;0.10;0.00;;;7.90;99.20;;;;;;4907368;29;20052;-92
2023/10/15 09:13:36;;;;;;;0.47;0.10;;;7.80;99.30;;;;;;4915442;29;20048;-91
2023/10/15 09:16:08;;;;;;;0.32;0.10;;;7.80;99.30;;;;;;4914372;29;20500;-89
2023/10/15 09:18:39;;;;;;;0.50;0.10;;;7.90;99.30;;;;;;4898568;29;20056;-86
2023/10/15 09:21:08;;;;;;;1.40;0.63;;;7.90;99.30;;;;;;4890832;29;20048;-91
2023/10/15 09:23:41;;;;;;;0.45;0.10;;;7.90;99.30;;;;;;4920876;29;20059;-90
2023/10/15 09:26:10;;;;;;;0.15;0.10;;;8.00;99.30;;;;;;4927005;29;20052;-88
2023/10/15 09:28:40;;;;;;;0.73;0.10;;;8.10;99.40;;;;;;4906558;29;20052;-90
2023/10/15 09:31:11;;;;;;;0.55;0.10;;;8.30;99.40;;;;;;4920269;29;20048;-92
2023/10/15 09:33:39;;;;;;;0.67;0.20;;;8.60;99.10;;;;;;4905037;29;20051;-87
2023/10/15 09:36:07;;;;;;;1.83;0.10;;;8.80;98.90;;;;;;4901206;29;20056;-88
2023/10/15 09:38:35;;;;;;;1.50;0.10;;;8.80;98.80;;;;;;4892436;29;20059;-87
2023/10/15 09:41:10;;;;;;;1.77;0.20;;;8.80;98.60;;;;;;4922770;29;20048;-88
2023/10/15 09:43:43;;;;;;;0.73;0.10;;;8.70;98.60;;;;;;4916721;29;20052;-87
2023/10/15 09:46:12;;;;;;;1.30;0.10;;;8.70;98.70;;;;;;4920666;29;20044;-91
2023/10/15 09:48:44;;;;;;;0.50;0.10;;;8.70;98.60;;;;;;4897452;29;20057;-89
2023/10/15 09:51:14;;;;;;;0.47;0.20;;;8.70;98.60;;;;;;4891846;29;20405;-86
2023/10/15 09:54:24;;;;;;;0.88;0.20;;;8.80;98.40;;;;;;4916418;29;20052;-92
2023/10/15 09:57:54;;;;;;;1.50;0.30;;;8.90;98.40;;;;;;4924488;29;20047;-96
2023/10/15 10:01:16;;;;;;;1.55;0.50;;;9.10;98.30;;;;;;4918636;29;20102;-82
2023/10/15 10:08:28;;;;;;;0.90;0.28;;;9.00;98.10;;;;;;4915465;29;20099;-92
2023/10/15 10:11:34;;;;;;;1.33;0.20;;;9.10;98.20;;;;;;4908290;29;20108;-92
2023/10/15 10:14:39;;;;;;;0.85;0.10;;;9.10;98.10;;;;;;4927829;29;20412;-95
2023/10/15 10:17:25;;;;;;;3.22;0.20;;;9.10;98.00;;;;;;4918935;29;20067;-84
2023/10/15 10:20:15;;;;;;;2.15;0.10;;;9.10;98.00;;;;;;4901549;29;20138;-92
2023/10/15 10:23:29;;;;;;;1.90;0.20;;;9.20;98.00;;;;;;4912617;29;20060;-95
2023/10/15 10:26:14;;;;;;;1.27;0.10;;;9.20;97.90;;;;;;4904129;29;20048;-86
2023/10/15 10:28:41;;;;;;;0.22;0.08;;;9.30;97.90;;;;;;4917907;29;20048;-92
2023/10/15 10:31:21;;;;;;;3.22;0.57;;;9.20;97.80;;;;;;4931683;29;20044;-90
2023/10/15 10:34:05;;;;;;;1.75;0.20;;;9.20;97.80;;;;;;4902205;29;20131;-92
2023/10/15 10:36:39;;;;;;;0.68;0.10;;;9.20;97.90;;;;;;4887474;29;20052;-88
2023/10/15 10:39:18;;;;;;;1.38;0.50;;;9.30;97.80;;;;;;4905446;29;20087;-88
2023/10/15 10:42:07;;;;;;;1.50;0.20;;;9.30;97.70;;;;;;4918536;29;20059;-89
2023/10/15 10:44:49;;;;;;;0.55;0.10;;;9.20;97.60;;;;;;4922030;29;20076;-88
2023/10/15 10:47:34;;;;;;;0.38;0.10;;;9.20;97.80;;;;;;4893781;29;20052;-87
2023/10/15 10:50:46;;;;;;;0.45;0.10;;;9.10;97.90;;;;;;4902723;29;20120;-88
2023/10/15 10:57:07;;;;;;;0.40;0.05;;;9.00;97.90;;;;;;4912360;29;20047;-88
2023/10/15 10:59:49;;;;;;;1.65;0.10;;;9.00;98.00;;;;;;4906157;29;20056;-89
2023/10/15 11:02:17;;;;;;;1.65;0.20;;;9.00;97.90;;;;;;4920763;29;20056;-89
2023/10/15 11:04:52;;;;;;;0.45;0.10;;;9.10;97.80;;;;;;4909422;29;20048;-88
2023/10/15 11:07:35;;;;;;;2.50;0.15;;;9.10;97.60;;;;;;4930069;29;20123;-86
2023/10/15 11:10:07;;;;;;;1.08;0.20;;;9.20;97.60;;;;;;4893356;29;20102;-89
2023/10/15 11:12:45;;;;;;;2.72;0.60;;;9.40;97.50;;;;;;4918363;29;20060;-90
2023/10/15 11:15:14;;;;;;;1.35;0.13;;;9.50;97.00;;;;;;4920455;29;20357;-88
2023/10/15 11:18:01;;;;;;;1.73;0.20;;;9.60;96.70;;;;;;4914168;29;20062;-89
2023/10/15 11:20:37;;;;;;;3.92;0.22;;;9.60;96.40;;;;;;4908076;29;20139;-88
2023/10/15 11:23:59;;;;;;;0.75;0.20;;;9.60;96.40;;;;;;4891899;29;20080;-88
2023/10/15 11:26:31;;;;;;;1.10;0.28;;;9.80;96.40;;;;;;4903100;29;20053;-88
2023/10/15 11:28:58;;;;;;;1.08;0.20;;;9.80;96.00;;;;;;4911872;29;20048;-87
2023/10/15 11:31:27;;;;;;;1.35;0.20;;;9.90;96.20;;;;;;4901433;29;20096;-87
2023/10/15 11:33:59;;;;;;;1.13;0.20;;;9.80;96.10;;;;;;4909464;29;20052;-87
2023/10/15 11:36:35;;;;;;;4.85;0.30;;;9.80;96.20;;;;;;4883824;29;20044;-89
2023/10/15 11:39:25;;;;;;;5.97;0.43;;;9.80;96.30;;;;;;4915070;29;20048;-87
2023/10/15 11:42:03;;;;;;;1.10;0.20;;;9.90;96.20;;;;;;4913144;29;20048;-84
2023/10/15 11:45:26;;;;;;;2.40;0.40;;;10.10;95.90;;;;;;4917939;29;20057;-87
2023/10/15 11:47:50;;;;;;;2.17;0.15;;;10.20;95.60;;;;;;4897819;29;20531;-85
2023/10/15 11:50:19;;;;;;;1.08;0.20;;;10.20;95.40;;;;;;4925557;29;20511;-86
2023/10/15 11:52:49;;;;;;;1.90;0.20;;;10.10;95.60;;;;;;4888198;29;20048;-86
2023/10/15 11:55:23;;;;;;;2.10;0.13;;;10.10;95.80;;;;;;4912346;29;20072;-87
2023/10/15 11:57:50;;;;;;;1.75;0.10;;;10.20;95.80;;;;;;4895815;29;20111;-87
2023/10/15 12:00:31;;;;;;;1.17;0.10;;;10.40;95.80;;;;;;4894254;29;20051;-86
2023/10/15 12:03:00;;;;;;;1.90;0.20;;;10.50;95.40;;;;;;4939371;29;20480;-87
2023/10/15 12:05:31;;;;;;;3.25;0.20;;;10.70;94.80;;;;;;4918310;29;20047;-87
2023/10/15 12:08:03;;;;;;;1.40;0.17;;;10.80;94.30;;;;;;4901967;29;20056;-86
2023/10/15 12:10:31;;;;;;;4.32;0.20;;;10.90;94.10;;;;;;4902325;29;20303;-86
2023/10/15 12:13:11;;;;;;;1.90;0.30;;;10.90;94.20;;;;;;4921129;29;20064;-86
2023/10/15 12:15:38;;;;;;;0.70;0.10;;;10.80;94.30;;;;;;4900722;29;20131;-87
2023/10/15 12:18:09;;;;;;;0.73;0.20;;;10.80;94.40;;;;;;4907327;29;20352;-86
2023/10/15 12:20:53;;;;;;;2.55;0.15;;;10.70;94.30;;;;;;4914700;29;20074;-86
2023/10/15 12:23:20;;;;;;;2.20;0.20;;;10.70;94.20;;;;;;4909951;29;20051;-86
2023/10/15 12:25:47;;;;;;;1.08;0.30;;;10.60;93.90;;;;;;4891977;29;20054;-87
2023/10/15 12:28:21;;;;;;;1.05;0.25;;;10.70;93.90;;;;;;4910861;29;20142;-87
2023/10/15 12:30:48;;;;;;;2.75;0.40;;;10.80;93.40;;;;;;4910483;29;20054;-86
2023/10/15 12:33:15;;;;;;;2.17;0.30;;;10.70;93.10;;;;;;4909689;29;20052;-88
2023/10/15 12:35:47;;;;;;;2.90;0.43;;;10.70;93.00;;;;;;4901246;29;20134;-87
2023/10/15 12:38:49;;;;;;;2.67;0.20;;;10.80;92.90;;;;;;4886586;29;20052;-87
2023/10/15 12:41:38;;;;;;;3.22;0.30;;;10.70;93.00;;;;;;4901418;29;20535;-86
2023/10/15 12:44:12;;;;;;;3.00;0.30;;;10.80;92.90;;;;;;4893604;29;20070;-86
2023/10/15 12:46:40;;;;;;;1.90;0.30;;;10.90;92.60;;;;;;4911133;29;20044;-85
2023/10/15 12:49:27;;;;;;;2.67;0.73;;;11.00;92.30;;;;;;4892911;29;20045;-87
2023/10/15 12:52:02;;;;;;;2.65;0.82;;;11.20;92.20;;;;;;4914175;29;20052;-86
2023/10/15 12:54:46;;;;;;;1.35;0.28;;;11.30;91.90;;;;;;4910674;29;20386;-85
2023/10/15 12:57:31;;;;;;;3.42;0.30;;;11.50;91.60;;;;;;4904836;29;20111;-84
2023/10/15 13:00:16;;;;;;;1.55;0.30;;;11.60;91.30;;;;;;4905609;29;20059;-86
2023/10/15 13:02:51;;;;;;;0.98;0.15;;;11.60;91.40;;;;;;4900705;29;20052;-87
2023/10/15 13:05:21;;;;;;;3.83;0.52;;;11.60;91.70;;;;;;4884850;29;20052;-86
2023/10/15 13:07:49;;;;;;;1.10;0.20;;;11.50;91.90;;;;;;4897414;29;20056;-86
2023/10/15 13:10:18;;;;;;;3.05;0.20;;;11.50;92.00;;;;;;4904406;29;20568;-86
2023/10/15 13:12:49;;;;;;;1.42;0.10;;;11.40;92.00;;;;;;4901365;29;20040;-88
2023/10/15 13:15:18;;;;;;;2.90;0.20;;;11.30;91.70;;;;;;4915855;29;20048;-84
2023/10/15 13:17:46;;;;;;;0.82;0.15;;;11.20;91.90;;;;;;4900018;29;20045;-86
2023/10/15 13:20:17;;;;;;;3.78;0.28;;;11.20;91.90;;;;;;4897502;29;20058;-84
2023/10/15 13:23:03;;;;;;;0.95;0.10;;;11.20;91.80;;;;;;4901715;29;20048;-88
2023/10/15 13:25:36;;;;;;;0.68;0.10;;;11.30;91.60;;;;;;4896291;29;20056;-88
2023/10/15 13:28:06;;;;;;;2.05;0.13;;;11.10;91.70;;;;;;4896773;29;20071;-88
2023/10/15 13:30:35;;;;;;;0.60;0.03;;;10.90;92.00;;;;;;4887261;29;20064;-84
2023/10/15 13:33:02;;;;;;;1.92;0.08;;;10.80;92.20;;;;;;4916897;29;20544;-87
2023/10/15 13:35:31;;;;;;;0.80;0.10;;;10.70;92.40;;;;;;4903993;29;20803;-85
2023/10/15 13:37:58;;;;;;;0.43;0.05;;;10.60;92.50;;;;;;4901548;29;20056;-83
2023/10/15 13:40:25;;;;;;;0.65;0.10;;;10.50;92.60;;;;;;4873469;29;20049;-85
2023/10/15 13:42:53;;;;;;;0.47;0.30;;;10.40;92.80;;;;;;4881532;29;20144;-83
2023/10/15 13:45:20;;;;;;;0.17;0.10;;;10.30;92.90;;;;;;4891544;29;20044;-88
2023/10/15 13:47:56;;;;;;;0.00;0.00;;;10.20;93.00;;;;;;4897832;29;20083;-89
2023/10/15 13:50:35;;;;;;;0.30;0.00;;;10.10;93.10;;;;;;4892032;29;20564;-84
2023/10/15 13:53:05;;;;;;;0.40;0.00;;;10.00;93.30;;;;;;4915892;29;20041;-86
2023/10/15 13:55:34;;;;;;;0.35;0.00;;;10.00;93.30;;;;;;4892811;29;20079;-84
2023/10/15 13:58:01;;;;;;;0.75;0.10;;;10.10;93.30;;;;;;4881446;29;20489;-91
2023/10/15 14:00:40;;;;;;;0.98;0.10;;;10.20;93.20;;;;;;4910889;29;20045;-85
2023/10/15 14:03:18;;;;;;;0.77;0.17;;;10.40;93.00;;;;;;4886659;29;20049;-84
2023/10/15 14:05:45;;;;;;;1.42;0.17;;;10.50;92.70;;;;;;4880875;29;20049;-84
2023/10/15 14:08:13;;;;;;;1.38;0.35;;;10.60;92.40;;;;;;4881079;29;20089;-82
2023/10/15 14:10:40;;;;;;;0.68;0.00;;;10.60;92.50;;;;;;4850405;29;20044;-82
2023/10/15 14:13:08;;;;;;;0.68;0.00;;;10.60;92.50;;;;;;4887433;29;20041;-83
2023/10/15 14:15:46;;;;;;;0.63;0.10;;;10.60;92.50;;;;;;4874428;29;20498;-83
2023/10/15 14:18:14;;;;;;;0.70;0.10;;;10.50;92.40;;;;;;4891016;29;20053;-89
2023/10/15 14:20:44;;;;;;;0.25;0.00;;;10.50;92.50;;;;;;4884329;29;20143;-83
2023/10/15 14:23:11;;;;;;;0.35;0.00;;;10.50;92.60;;;;;;4891569;29;20045;-84
2023/10/15 14:25:40;;;;;;;0.75;0.00;;;10.50;92.60;;;;;;4885849;29;20100;-84
2023/10/15 14:28:06;;;;;;;2.20;0.40;;;10.50;92.70;;;;;;4892472;29;20048;-82
2023/10/15 14:30:33;;;;;;;2.80;0.20;;;10.50;92.40;;;;;;4886964;29;20044;-85
2023/10/15 14:33:01;;;;;;;0.68;0.20;;;10.60;92.20;;;;;;4894793;29;20067;-86
2023/10/15 14:35:28;;;;;;;2.47;0.20;;;10.70;92.20;;;;;;4876979;29;20124;-83
2023/10/15 14:37:55;;;;;;;2.17;0.20;;;10.80;92.30;;;;;;4874842;29;20159;-83
2023/10/15 14:40:22;;;;;;;1.67;0.20;;;10.70;91.80;;;;;;4898487;29;20048;-83
2023/10/15 14:42:49;;;;;;;1.95;0.20;;;10.70;90.90;;;;;;4884177;29;20147;-84
2023/10/15 14:45:21;;;;;;;1.60;0.30;;;10.70;90.70;;;;;;4886160;29;20400;-84
2023/10/15 14:47:48;;;;;;;1.45;0.20;;;10.80;90.80;;;;;;4894977;29;20470;-86
2023/10/15 14:50:15;;;;;;;2.15;0.20;;;10.80;90.70;;;;;;4883239;29;20099;-83
2023/10/15 14:52:44;;;;;;;1.63;0.20;;;10.80;90.30;;;;;;4900292;29;20060;-82
2023/10/15 14:55:12;;;;;;;2.00;0.10;;;10.50;90.30;;;;;;4913860;29;20040;-89
2023/10/15 14:57:40;;;;;;;4.45;0.30;;;10.20;91.00;;;;;;4910580;29;20048;-83
2023/10/15 15:00:14;;;;;;;0.95;0.20;;;9.80;91.40;;;;;;4933376;29;20115;-85
2023/10/15 15:02:42;;;;;;;1.42;0.30;;;9.60;91.90;;;;;;4907504;29;20573;-83